Date,TemperatureHighF,TemperatureAvgF,TemperatureLowF,DewpointHighF,DewpointAvgF,DewpointLowF,HumidityHigh,HumidityAvg,HumidityLow,PressureMaxIn,PressureMinIn,WindSpeedMaxMPH,WindSpeedAvgMPH,GustSpeedMaxMPH,PrecipitationSumIn
2013-1-1,51.1,48.0,44.1,50.1,41.1,28.4,97,79,49,30.04,29.87,6,1,12,0.24
2013-1-2,54.9,47.6,42.8,49.8,42.6,36.9,100,84,59,30.11,29.84,4,0,8,0.17
2013-1-3,48.0,41.4,32.0,39.7,36.5,28.9,90,83,70,30.20,30.06,2,0,6,0.00
2013-1-4,60.1,41.4,28.8,37.2,27.5,21.0,90,63,32,30.26,30.13,7,1,13,0.00
2013-1-5,58.5,42.0,30.6,32.8,26.0,21.5,72,56,30,30.32,30.16,4,0,8,0.01
2013-1-6,62.2,46.2,40.5,39.9,36.2,32.2,85,69,49,30.16,29.98,4,0,9,0.00
2013-1-7,61.5,44.1,33.1,36.3,31.3,28.2,84,64,34,30.35,30.12,4,0,8,0.00
2013-1-8,62.2,46.6,32.0,43.7,37.4,28.2,89,72,47,30.38,30.28,4,0,8,0.00
2013-1-9,74.8,53.8,39.0,55.3,45.6,36.2,91,76,49,30.38,30.29,5,0,8,0.00
2013-1-10,72.5,56.0,48.4,50.1,44.1,34.6,94,69,31,30.45,30.33,4,0,8,0.00
2013-1-11,52.5,47.3,43.9,49.0,44.7,40.5,97,91,71,30.34,30.10,4,0,9,0.20
2013-1-12,70.7,57.5,47.8,65.0,55.6,47.0,100,94,80,30.12,30.04,4,0,8,0.01
2013-1-13,79.2,65.6,53.6,64.1,59.5,53.0,100,83,58,30.09,29.99,8,2,17,0.00
2013-1-14,65.5,63.8,62.4,64.3,61.4,58.5,100,92,85,30.09,30.01,6,1,11,0.26
2013-1-15,63.0,47.4,44.6,62.1,46.4,42.0,100,96,92,30.16,29.99,5,1,11,0.04
2013-1-16,53.6,47.2,42.3,52.5,46.4,41.2,100,98,95,30.01,29.90,3,0,6,0.22
2013-1-17,52.5,46.2,34.3,52.2,45.5,33.2,100,97,93,30.10,29.80,6,1,15,1.48
2013-1-18,52.3,39.2,31.1,37.9,31.1,24.7,97,76,40,30.45,30.08,3,0,8,0.25
2013-1-19,62.4,43.3,28.2,37.7,29.9,24.0,89,64,30,30.41,30.09,5,1,10,0.00
2013-1-20,72.0,51.3,39.4,40.7,32.6,28.5,71,53,27,30.09,29.94,7,2,12,0.00
2013-1-21,69.4,48.4,33.4,39.8,28.7,17.0,86,53,23,30.02,29.81,8,1,16,0.00
2013-1-22,51.4,38.6,30.0,18.1,5.3,-14.2,46,29,11,30.19,29.90,8,1,15,0.00
2013-1-23,51.6,35.0,23.2,20.2,11.5,-3.2,64,42,18,30.28,29.96,6,1,11,0.00
2013-1-24,50.5,35.8,26.1,27.4,13.7,-5.5,77,45,19,30.41,29.89,6,1,14,0.00
2013-1-25,31.5,25.4,22.8,24.1,15.5,3.7,88,67,39,30.43,30.03,4,0,8,0.00
2013-1-26,47.3,34.0,27.3,37.9,29.7,24.0,91,85,66,30.31,30.00,2,0,4,0.22
2013-1-27,50.4,36.7,26.8,31.9,26.9,22.1,89,69,46,30.50,30.30,5,1,10,0.00
2013-1-28,50.7,42.9,36.0,44.8,34.2,27.9,83,72,56,30.41,30.19,5,1,11,0.01